Himrod, New York
Current Conditions -  °F | °C
As of 8:53 PM on Saturday 25 Oct 2014 (Local Time) from KPEO Reporting Station
Clear Clear  
Wind Chill: 57°   Ceiling: Unl
Heat Index: 57°   Visibility: 10mi
Dew Point: 46°   Wind: 14mph
Humidity: 67%   Direction: 250°WSW
Pressure: 29.62"   Gusts: 22mph
Location:  42.59°N, 76.96°W
Report Text: KPEO 260053Z AUTO 25012G19KT 10SM CLR 14/08 A2962 RMK AO2 SLP029 T01390078
Loading
Personal Weather Stations






























Interactive Weather Map
Tropical Storm Tracking
New forecast layout! Learn more

10-Day Weather Forecast

Advertisements
Track Severe Weather on mobile